Time;durP1;ratioP1;P1;durP2;ratioP2;P2;SDS_P1;SDS_P2;PMS_P1;PMS_P2;Temp;Humidity;BMP_temperature;BMP_pressure;BME280_temperature;BME280_humidity;BME280_pressure;Samples;Min_cycle;Max_cycle;Signal;HPM_P1;HPM_P2
2021/03/09 00:01:03;;;;;;;11.05;7.90;;;;;;;;;;5052121;28;20025;-72
2021/03/09 00:03:29;;;;;;;11.88;8.38;;;;;;;;;;5053149;28;20021;-75
2021/03/09 00:05:55;;;;;;;12.35;8.15;;;;;;;;;;5052776;28;20373;-82
2021/03/09 00:08:22;;;;;;;14.57;8.40;;;;;;;;;;5053370;28;20086;-80
2021/03/09 00:10:48;;;;;;;11.60;8.30;;;;;;;;;;5052301;28;20029;-73
2021/03/09 00:13:14;;;;;;;12.43;7.63;;;;;;;;;;5051891;28;20090;-78
2021/03/09 00:15:40;;;;;;;12.43;7.93;;;;;;;;;;5052358;28;20105;-75
2021/03/09 00:18:09;;;;;;;12.15;8.27;;;;;;;;;;5051624;28;20025;-75
2021/03/09 00:20:35;;;;;;;13.63;8.90;;;;;;;;;;5051422;28;20029;-76
2021/03/09 00:23:01;;;;;;;10.90;7.70;;;;;;;;;;5053154;28;20025;-84
2021/03/09 00:25:27;;;;;;;12.57;8.38;;;;;;;;;;5052207;28;20139;-76
2021/03/09 00:27:53;;;;;;;12.55;8.18;;;;;;;;;;5050640;28;20182;-75
2021/03/09 00:30:20;;;;;;;12.77;8.43;;;;;;;;;;5051270;28;20013;-71
2021/03/09 00:32:46;;;;;;;14.05;8.18;;;;;;;;;;5051851;28;20071;-71
2021/03/09 00:35:12;;;;;;;12.88;7.88;;;;;;;;;;5050778;28;20084;-78
2021/03/09 00:37:38;;;;;;;12.10;7.70;;;;;;;;;;5052060;28;20100;-74
2021/03/09 00:40:04;;;;;;;13.65;7.85;;;;;;;;;;5051859;28;20029;-80
2021/03/09 00:42:31;;;;;;;13.27;8.70;;;;;;;;;;5051795;28;20048;-71
2021/03/09 00:44:57;;;;;;;11.77;8.25;;;;;;;;;;5051589;28;20018;-71
2021/03/09 00:47:23;;;;;;;11.95;8.20;;;;;;;;;;5044041;28;20041;-72
2021/03/09 00:49:49;;;;;;;14.55;8.65;;;;;;;;;;5032004;28;20029;-70
2021/03/09 00:52:15;;;;;;;12.80;8.40;;;;;;;;;;5047021;28;20053;-79
2021/03/09 00:54:41;;;;;;;12.10;8.02;;;;;;;;;;5031469;28;20025;-77
2021/03/09 00:57:07;;;;;;;10.85;7.88;;;;;;;;;;5031588;28;20025;-74
2021/03/09 00:59:33;;;;;;;11.75;7.68;;;;;;;;;;5031662;28;20382;-71
2021/03/09 01:01:59;;;;;;;13.57;8.27;;;;;;;;;;5047242;28;20047;-67
2021/03/09 01:04:25;;;;;;;11.88;7.88;;;;;;;;;;5038396;28;20044;-79
2021/03/09 01:06:51;;;;;;;11.82;8.38;;;;;;;;;;5052188;28;20350;-72
2021/03/09 01:09:17;;;;;;;13.30;8.80;;;;;;;;;;5050097;28;20033;-82
2021/03/09 01:11:43;;;;;;;11.77;8.02;;;;;;;;;;5050790;28;20108;-74
2021/03/09 01:14:10;;;;;;;12.63;8.43;;;;;;;;;;5052969;28;20009;-79
2021/03/09 01:16:36;;;;;;;12.05;8.30;;;;;;;;;;5051460;28;20116;-80
2021/03/09 01:19:02;;;;;;;12.23;7.80;;;;;;;;;;5050352;28;20056;-74
2021/03/09 01:21:28;;;;;;;13.52;8.43;;;;;;;;;;5052586;28;20126;-76
2021/03/09 01:23:54;;;;;;;11.90;7.90;;;;;;;;;;5051298;28;20025;-79
2021/03/09 01:26:20;;;;;;;12.82;8.93;;;;;;;;;;5051465;28;20031;-73
2021/03/09 01:28:46;;;;;;;13.80;8.82;;;;;;;;;;5051097;28;20079;-78
2021/03/09 01:31:12;;;;;;;11.98;8.13;;;;;;;;;;5051217;28;20032;-72
2021/03/09 01:33:38;;;;;;;11.68;7.88;;;;;;;;;;5051245;28;20024;-74
2021/03/09 01:36:05;;;;;;;10.63;7.55;;;;;;;;;;5050832;28;20029;-76
2021/03/09 01:38:31;;;;;;;10.90;7.45;;;;;;;;;;5043095;28;20029;-81
2021/03/09 01:40:57;;;;;;;12.90;7.65;;;;;;;;;;5031157;28;20028;-73
2021/03/09 01:43:23;;;;;;;11.43;7.65;;;;;;;;;;5046296;28;20109;-77
2021/03/09 01:45:49;;;;;;;12.38;8.13;;;;;;;;;;5046268;28;20022;-76
2021/03/09 01:48:18;;;;;;;11.68;7.70;;;;;;;;;;5046462;28;20494;-80
2021/03/09 01:50:44;;;;;;;11.63;7.57;;;;;;;;;;5031048;28;20021;-70
2021/03/09 01:53:10;;;;;;;11.90;7.60;;;;;;;;;;5031129;28;20028;-74
2021/03/09 01:55:36;;;;;;;12.90;7.60;;;;;;;;;;5039811;28;20029;-73
2021/03/09 01:58:06;;;;;;;11.05;7.47;;;;;;;;;;5050728;28;20013;-76
2021/03/09 02:00:33;;;;;;;13.68;7.95;;;;;;;;;;5050975;28;20025;-69
2021/03/09 02:02:59;;;;;;;10.80;7.22;;;;;;;;;;5051841;28;20029;-88
2021/03/09 02:05:25;;;;;;;10.52;7.00;;;;;;;;;;5051113;28;20111;-76
2021/03/09 02:07:51;;;;;;;12.00;7.10;;;;;;;;;;5050667;28;20478;-74
2021/03/09 02:10:17;;;;;;;10.02;6.97;;;;;;;;;;5049587;28;20492;-74
2021/03/09 02:12:51;;;;;;;10.57;7.28;;;;;;;;;;5040483;28;20092;-72
2021/03/09 02:15:23;;;;;;;11.13;6.57;;;;;;;;;;5031777;28;20476;-71
2021/03/09 02:17:52;;;;;;;12.80;7.18;;;;;;;;;;5034653;28;20022;-74
2021/03/09 02:20:37;;;;;;;9.70;6.97;;;;;;;;;;5059861;28;20462;-70
2021/03/09 02:23:08;;;;;;;9.52;6.85;;;;;;;;;;5054622;28;20108;-70
2021/03/09 02:25:34;;;;;;;11.90;7.17;;;;;;;;;;5053094;28;20025;-70
2021/03/09 02:28:00;;;;;;;11.65;6.53;;;;;;;;;;5054272;28;20043;-81
2021/03/09 02:30:32;;;;;;;10.05;6.93;;;;;;;;;;5054116;28;20013;-75
2021/03/09 02:33:27;;;;;;;10.10;6.50;;;;;;;;;;5054320;28;20043;-72
2021/03/09 02:35:56;;;;;;;10.85;6.50;;;;;;;;;;5053504;28;20659;-76
2021/03/09 02:38:24;;;;;;;9.43;6.00;;;;;;;;;;5055051;28;20028;-77
2021/03/09 02:40:53;;;;;;;11.60;6.95;;;;;;;;;;5053090;28;20021;-74
2021/03/09 02:43:19;;;;;;;10.40;6.50;;;;;;;;;;5054096;28;20032;-71
2021/03/09 02:45:48;;;;;;;10.70;6.32;;;;;;;;;;5051715;28;20086;-71
2021/03/09 02:48:15;;;;;;;10.43;6.50;;;;;;;;;;5049346;28;20031;-78
2021/03/09 02:50:42;;;;;;;11.93;6.82;;;;;;;;;;5034389;28;20025;-77
2021/03/09 02:53:12;;;;;;;9.75;6.25;;;;;;;;;;5034371;28;20683;-69
2021/03/09 02:55:39;;;;;;;9.52;6.47;;;;;;;;;;5033960;28;20032;-70
2021/03/09 02:58:09;;;;;;;10.02;6.10;;;;;;;;;;5048259;28;20366;-79
2021/03/09 03:00:39;;;;;;;9.80;6.28;;;;;;;;;;5054408;28;20032;-69
2021/03/09 03:03:07;;;;;;;8.43;5.32;;;;;;;;;;5048102;28;20025;-77
2021/03/09 03:05:34;;;;;;;9.07;5.22;;;;;;;;;;5049560;28;20398;-69
2021/03/09 03:08:02;;;;;;;11.15;6.40;;;;;;;;;;5049447;28;20056;-79
2021/03/09 03:10:29;;;;;;;10.32;6.03;;;;;;;;;;5034410;28;20083;-77
2021/03/09 03:12:55;;;;;;;9.25;5.57;;;;;;;;;;5064440;28;20021;-70
2021/03/09 03:15:21;;;;;;;8.80;6.03;;;;;;;;;;5053888;28;20052;-75
2021/03/09 03:17:47;;;;;;;13.02;5.70;;;;;;;;;;5054312;28;20079;-75
2021/03/09 03:20:15;;;;;;;11.05;6.15;;;;;;;;;;5046729;28;20029;-69
2021/03/09 03:22:42;;;;;;;13.80;6.13;;;;;;;;;;5034195;28;20022;-78
2021/03/09 03:25:09;;;;;;;13.30;5.75;;;;;;;;;;5034097;28;20577;-70
2021/03/09 03:27:36;;;;;;;10.27;5.82;;;;;;;;;;5033137;28;20378;-79
2021/03/09 03:30:02;;;;;;;8.55;5.45;;;;;;;;;;5034080;28;20033;-76
2021/03/09 03:32:28;;;;;;;12.73;5.90;;;;;;;;;;5033658;28;20029;-79
2021/03/09 03:34:54;;;;;;;10.02;5.30;;;;;;;;;;5032661;28;20025;-72
2021/03/09 03:37:21;;;;;;;14.90;6.07;;;;;;;;;;5033812;28;20105;-79
2021/03/09 03:39:47;;;;;;;11.93;5.63;;;;;;;;;;5033695;28;20045;-75
2021/03/09 03:42:13;;;;;;;12.32;6.00;;;;;;;;;;5033905;28;20036;-79
2021/03/09 03:44:39;;;;;;;11.88;5.32;;;;;;;;;;5033994;28;20017;-80
2021/03/09 03:47:05;;;;;;;10.60;5.55;;;;;;;;;;5033798;28;20037;-71
2021/03/09 03:49:31;;;;;;;11.48;6.18;;;;;;;;;;5032819;28;20128;-71
2021/03/09 03:52:06;;;;;;;9.23;5.80;;;;;;;;;;5033852;28;20052;-70
2021/03/09 03:54:58;;;;;;;9.57;5.78;;;;;;;;;;5033749;28;20486;-81
2021/03/09 03:57:30;;;;;;;10.30;5.38;;;;;;;;;;5033065;28;20041;-68
2021/03/09 03:59:57;;;;;;;8.05;5.25;;;;;;;;;;5033668;28;20029;-79
2021/03/09 04:02:24;;;;;;;14.32;5.57;;;;;;;;;;5032364;28;20029;-68
2021/03/09 04:04:50;;;;;;;9.13;5.25;;;;;;;;;;5033739;28;20030;-79
2021/03/09 04:07:24;;;;;;;10.27;5.15;;;;;;;;;;5033475;28;20037;-69
2021/03/09 04:09:52;;;;;;;10.82;5.43;;;;;;;;;;5032338;28;20053;-80
2021/03/09 04:12:18;;;;;;;8.18;5.20;;;;;;;;;;5033592;28;20047;-75
2021/03/09 04:14:44;;;;;;;12.30;5.80;;;;;;;;;;5032082;28;20079;-80
2021/03/09 04:17:12;;;;;;;11.73;5.80;;;;;;;;;;5033273;28;20029;-77
2021/03/09 04:19:39;;;;;;;10.73;5.53;;;;;;;;;;5033354;28;20116;-76
2021/03/09 04:22:06;;;;;;;8.25;4.97;;;;;;;;;;5033445;28;20045;-69
2021/03/09 04:24:32;;;;;;;10.18;5.45;;;;;;;;;;5033178;28;20075;-75
2021/03/09 04:26:58;;;;;;;9.52;5.22;;;;;;;;;;5033120;28;20044;-74
2021/03/09 04:29:25;;;;;;;9.52;5.57;;;;;;;;;;5033065;28;20092;-69
2021/03/09 04:31:51;;;;;;;8.70;5.45;;;;;;;;;;5031640;28;20025;-71
2021/03/09 04:34:17;;;;;;;8.43;4.80;;;;;;;;;;5031817;28;20453;-80
2021/03/09 04:36:44;;;;;;;8.15;4.88;;;;;;;;;;5032920;28;20378;-80
2021/03/09 04:39:10;;;;;;;10.05;5.32;;;;;;;;;;5032900;28;20029;-70
2021/03/09 04:41:37;;;;;;;9.20;5.03;;;;;;;;;;5033044;28;20024;-69
2021/03/09 04:44:03;;;;;;;11.13;5.45;;;;;;;;;;5032904;28;20104;-74
2021/03/09 04:46:29;;;;;;;8.63;4.63;;;;;;;;;;5032798;28;20378;-70
2021/03/09 04:48:56;;;;;;;8.73;4.97;;;;;;;;;;5032880;28;20581;-69
2021/03/09 04:51:22;;;;;;;8.57;4.65;;;;;;;;;;5032602;28;20052;-71
2021/03/09 04:53:49;;;;;;;9.63;5.45;;;;;;;;;;5032624;28;20021;-78
2021/03/09 04:56:15;;;;;;;7.82;4.60;;;;;;;;;;5031459;28;20017;-75
2021/03/09 04:58:41;;;;;;;9.23;5.05;;;;;;;;;;5032552;28;20030;-71
2021/03/09 05:01:07;;;;;;;10.77;5.15;;;;;;;;;;5032723;28;20083;-74
2021/03/09 05:03:34;;;;;;;9.10;4.70;;;;;;;;;;5032652;28;20022;-71
2021/03/09 05:06:00;;;;;;;8.75;5.25;;;;;;;;;;5031178;28;20022;-70
2021/03/09 05:08:26;;;;;;;8.32;4.78;;;;;;;;;;5032428;28;20083;-70
2021/03/09 05:10:53;;;;;;;10.20;5.18;;;;;;;;;;5031110;28;20025;-69
2021/03/09 05:13:19;;;;;;;9.02;5.25;;;;;;;;;;5032320;28;20033;-73
2021/03/09 05:15:45;;;;;;;9.05;5.00;;;;;;;;;;5030991;28;20060;-70
2021/03/09 05:18:13;;;;;;;9.93;5.07;;;;;;;;;;5032565;28;20049;-81
2021/03/09 05:20:39;;;;;;;10.40;5.38;;;;;;;;;;5032331;28;20029;-78
2021/03/09 05:23:05;;;;;;;10.15;5.35;;;;;;;;;;5032197;28;20034;-71
2021/03/09 05:25:32;;;;;;;9.00;5.22;;;;;;;;;;5030919;28;20099;-70
2021/03/09 05:27:58;;;;;;;9.35;5.25;;;;;;;;;;5031893;28;20029;-74
2021/03/09 05:30:24;;;;;;;8.35;5.22;;;;;;;;;;5031594;28;20033;-71
2021/03/09 05:32:50;;;;;;;9.65;5.22;;;;;;;;;;5031429;28;20030;-77
2021/03/09 05:35:17;;;;;;;9.57;4.90;;;;;;;;;;5035428;28;20028;-81
2021/03/09 05:37:44;;;;;;;8.18;4.80;;;;;;;;;;5051025;28;20035;-73
2021/03/09 05:40:10;;;;;;;10.45;4.85;;;;;;;;;;5051323;28;20059;-71
2021/03/09 05:42:36;;;;;;;9.55;5.30;;;;;;;;;;5051265;28;20056;-70
2021/03/09 05:45:04;;;;;;;9.13;5.00;;;;;;;;;;5051349;28;20025;-68
2021/03/09 05:47:30;;;;;;;8.85;5.10;;;;;;;;;;5050048;28;20064;-78
2021/03/09 05:49:58;;;;;;;8.98;5.03;;;;;;;;;;5051878;28;20040;-81
2021/03/09 05:52:25;;;;;;;8.40;4.72;;;;;;;;;;5055832;28;20009;-82
2021/03/09 05:54:51;;;;;;;8.98;5.07;;;;;;;;;;5054576;28;20017;-71
2021/03/09 05:57:17;;;;;;;8.05;4.80;;;;;;;;;;5055884;28;20466;-72
2021/03/09 05:59:44;;;;;;;9.23;5.05;;;;;;;;;;5054535;28;20021;-73
2021/03/09 06:02:10;;;;;;;11.98;4.90;;;;;;;;;;5055993;28;20060;-72
2021/03/09 06:04:36;;;;;;;8.82;5.50;;;;;;;;;;5055427;28;20025;-74
2021/03/09 06:07:03;;;;;;;8.77;5.20;;;;;;;;;;5054322;28;20083;-71
2021/03/09 06:09:39;;;;;;;12.18;5.13;;;;;;;;;;5055511;28;20025;-77
2021/03/09 06:12:17;;;;;;;10.52;5.40;;;;;;;;;;5055567;28;20025;-79
2021/03/09 06:14:59;;;;;;;9.10;4.63;;;;;;;;;;5053998;28;20040;-71
2021/03/09 06:17:30;;;;;;;10.17;5.40;;;;;;;;;;5055361;28;20044;-77
2021/03/09 06:19:56;;;;;;;9.60;4.95;;;;;;;;;;5054136;28;20025;-76
2021/03/09 06:22:40;;;;;;;9.48;4.63;;;;;;;;;;5055615;28;20032;-78
2021/03/09 06:25:07;;;;;;;10.38;4.88;;;;;;;;;;5055444;28;20029;-74
2021/03/09 06:27:34;;;;;;;9.93;5.22;;;;;;;;;;5053913;28;20040;-77
2021/03/09 06:30:03;;;;;;;9.10;5.10;;;;;;;;;;5055178;28;20082;-68
2021/03/09 06:32:38;;;;;;;9.40;5.03;;;;;;;;;;5053592;28;20032;-80
2021/03/09 06:35:04;;;;;;;10.77;5.10;;;;;;;;;;5053841;28;20083;-75
2021/03/09 06:37:30;;;;;;;12.57;4.82;;;;;;;;;;5053619;28;20032;-74
2021/03/09 06:40:03;;;;;;;11.77;5.00;;;;;;;;;;5054926;28;20025;-80
2021/03/09 06:42:29;;;;;;;;;;;;;;;;;;5055397;28;20374;-72
2021/03/09 06:44:59;;;;;;;9.20;4.88;;;;;;;;;;5054918;28;20349;-77
2021/03/09 06:47:39;;;;;;;8.63;4.88;;;;;;;;;;5053584;28;20121;-70
2021/03/09 06:50:09;;;;;;;10.45;4.78;;;;;;;;;;5054871;28;20020;-71
2021/03/09 06:52:35;;;;;;;8.23;4.65;;;;;;;;;;5054565;28;20017;-77
2021/03/09 06:55:02;;;;;;;8.23;4.90;;;;;;;;;;5054860;28;20036;-69
2021/03/09 06:57:28;;;;;;;8.93;4.43;;;;;;;;;;5054587;28;20351;-67
2021/03/09 06:59:55;;;;;;;10.48;4.78;;;;;;;;;;5054657;28;20095;-76
2021/03/09 07:02:25;;;;;;;12.57;4.93;;;;;;;;;;5052149;28;20028;-72
2021/03/09 07:04:52;;;;;;;9.73;4.50;;;;;;;;;;5054732;28;20078;-81
2021/03/09 07:07:35;;;;;;;9.35;4.20;;;;;;;;;;5053096;28;20405;-69
2021/03/09 07:10:01;;;;;;;7.80;4.43;;;;;;;;;;5054409;28;20065;-75
2021/03/09 07:12:28;;;;;;;9.38;4.22;;;;;;;;;;5054514;28;20470;-80
2021/03/09 07:14:55;;;;;;;7.75;4.25;;;;;;;;;;5053208;28;20045;-68
2021/03/09 07:17:23;;;;;;;8.05;4.25;;;;;;;;;;5054383;28;20829;-71
2021/03/09 07:19:49;;;;;;;8.40;4.18;;;;;;;;;;5053131;28;20021;-75
2021/03/09 07:22:17;;;;;;;7.82;4.45;;;;;;;;;;5052788;28;20029;-75
2021/03/09 07:24:47;;;;;;;7.75;4.13;;;;;;;;;;5052739;28;20100;-71
2021/03/09 07:27:17;;;;;;;10.02;4.20;;;;;;;;;;5054346;28;20036;-71
2021/03/09 07:29:47;;;;;;;8.95;3.78;;;;;;;;;;5054099;28;20608;-77
2021/03/09 07:32:14;;;;;;;9.88;3.85;;;;;;;;;;5054037;28;20025;-80
2021/03/09 07:34:41;;;;;;;6.88;3.65;;;;;;;;;;5052527;28;20104;-74
2021/03/09 07:37:07;;;;;;;7.22;3.88;;;;;;;;;;5050980;28;20040;-70
2021/03/09 07:39:35;;;;;;;9.55;4.53;;;;;;;;;;5052449;28;20052;-80
2021/03/09 07:42:01;;;;;;;7.32;3.83;;;;;;;;;;5052875;28;20372;-75
2021/03/09 07:44:27;;;;;;;6.20;3.30;;;;;;;;;;5052769;28;20021;-74
2021/03/09 07:46:54;;;;;;;8.85;4.82;;;;;;;;;;5052347;28;20477;-74
2021/03/09 07:49:20;;;;;;;10.45;3.60;;;;;;;;;;5054087;28;20022;-71
2021/03/09 07:52:06;;;;;;;9.75;3.65;;;;;;;;;;5053646;28;20690;-76
2021/03/09 07:54:32;;;;;;;7.82;4.00;;;;;;;;;;5053004;28;20036;-79
2021/03/09 07:57:16;;;;;;;6.85;3.53;;;;;;;;;;5052433;28;20081;-75
2021/03/09 07:59:59;;;;;;;7.43;3.40;;;;;;;;;;5053603;28;20021;-71
2021/03/09 08:02:24;;;;;;;;;;;;;;;;;;5054136;28;20028;-80
2021/03/09 08:04:57;;;;;;;7.10;3.50;;;;;;;;;;5053630;28;19905;-69
2021/03/09 08:07:41;;;;;;;7.82;3.53;;;;;;;;;;5053012;28;20040;-69
2021/03/09 08:10:28;;;;;;;7.50;3.53;;;;;;;;;;5051874;28;20032;-81
2021/03/09 08:13:06;;;;;;;7.22;3.47;;;;;;;;;;5052686;28;20021;-78
2021/03/09 08:15:32;;;;;;;6.90;3.30;;;;;;;;;;5053070;28;20045;-79
2021/03/09 08:18:19;;;;;;;7.00;3.25;;;;;;;;;;5052981;28;20036;-79
2021/03/09 08:20:48;;;;;;;6.68;3.30;;;;;;;;;;5053239;28;20021;-77
2021/03/09 08:26:09;;;;;;;10.05;3.42;;;;;;;;;;5053140;28;20513;-69
2021/03/09 08:28:40;;;;;;;7.10;3.40;;;;;;;;;;5051522;28;20580;-81
2021/03/09 08:31:15;;;;;;;6.15;3.20;;;;;;;;;;5052863;28;20029;-78
2021/03/09 08:33:42;;;;;;;7.03;3.28;;;;;;;;;;5053049;28;20047;-80
2021/03/09 08:36:20;;;;;;;7.22;3.00;;;;;;;;;;5046123;28;20603;-73
2021/03/09 08:39:19;;;;;;;8.02;2.92;;;;;;;;;;5052513;28;20387;-73
2021/03/09 08:41:45;;;;;;;7.22;3.05;;;;;;;;;;5052308;28;20028;-68
2021/03/09 08:44:17;;;;;;;6.18;2.97;;;;;;;;;;5051769;28;20021;-68
2021/03/09 08:47:05;;;;;;;6.80;2.88;;;;;;;;;;5052362;28;20086;-73
2021/03/09 08:49:40;;;;;;;6.30;3.03;;;;;;;;;;5052516;28;20025;-67
2021/03/09 08:52:06;;;;;;;6.03;2.80;;;;;;;;;;5052096;28;20071;-71
2021/03/09 08:54:38;;;;;;;6.68;2.78;;;;;;;;;;5052380;28;20393;-68
2021/03/09 08:57:10;;;;;;;6.78;2.88;;;;;;;;;;5052269;28;20036;-71
2021/03/09 08:59:37;;;;;;;6.25;2.60;;;;;;;;;;5051421;28;20056;-69
2021/03/09 09:02:07;;;;;;;7.18;2.53;;;;;;;;;;5032049;28;20040;-71
2021/03/09 09:04:34;;;;;;;5.32;2.47;;;;;;;;;;5032166;28;20516;-70
2021/03/09 09:07:00;;;;;;;8.43;3.00;;;;;;;;;;5031561;28;20030;-72
2021/03/09 09:09:36;;;;;;;5.72;2.55;;;;;;;;;;5032887;28;20031;-71
2021/03/09 09:12:28;;;;;;;5.63;2.70;;;;;;;;;;5051247;28;20025;-78
2021/03/09 09:14:54;;;;;;;;;;;;;;;;;;5048825;28;20029;-71
2021/03/09 09:17:20;;;;;;;4.80;2.55;;;;;;;;;;5042891;28;19909;-78
2021/03/09 09:19:55;;;;;;;5.68;2.20;;;;;;;;;;5031332;28;20028;-76
2021/03/09 09:22:23;;;;;;;5.75;2.20;;;;;;;;;;5032657;28;20029;-77
2021/03/09 09:24:53;;;;;;;6.25;2.13;;;;;;;;;;5047851;28;20474;-71
2021/03/09 09:27:20;;;;;;;4.55;2.17;;;;;;;;;;5049779;28;20120;-71
2021/03/09 09:29:53;;;;;;;5.43;2.75;;;;;;;;;;5050007;28;20511;-71
2021/03/09 09:32:19;;;;;;;5.03;2.60;;;;;;;;;;5050046;28;20021;-70
2021/03/09 09:34:45;;;;;;;6.45;2.45;;;;;;;;;;5050485;28;20013;-69
2021/03/09 09:37:12;;;;;;;5.53;2.47;;;;;;;;;;5050957;28;20082;-68
2021/03/09 09:39:38;;;;;;;6.68;2.45;;;;;;;;;;5051216;28;20113;-67
2021/03/09 09:42:04;;;;;;;8.55;2.45;;;;;;;;;;5051152;28;20025;-86
2021/03/09 09:44:30;;;;;;;5.43;2.55;;;;;;;;;;5049950;28;20031;-83
2021/03/09 09:46:57;;;;;;;5.55;2.50;;;;;;;;;;5050697;28;20036;-75
2021/03/09 09:49:23;;;;;;;6.68;2.35;;;;;;;;;;5049742;28;20075;-68
2021/03/09 09:51:49;;;;;;;4.38;1.95;;;;;;;;;;5039793;28;20045;-74
2021/03/09 09:54:15;;;;;;;4.70;2.35;;;;;;;;;;5030847;28;20021;-70
2021/03/09 09:56:41;;;;;;;6.65;2.20;;;;;;;;;;5030741;28;20036;-69
2021/03/09 09:59:07;;;;;;;4.30;2.25;;;;;;;;;;5046034;28;20033;-74
2021/03/09 10:01:36;;;;;;;5.15;2.50;;;;;;;;;;5046028;28;20021;-80
2021/03/09 10:04:02;;;;;;;6.15;2.40;;;;;;;;;;5030732;28;20032;-76
2021/03/09 10:06:30;;;;;;;4.47;2.22;;;;;;;;;;5046175;28;20037;-69
2021/03/09 10:09:07;;;;;;;15.52;2.28;;;;;;;;;;5058355;28;20021;-68
2021/03/09 10:11:43;;;;;;;4.28;1.95;;;;;;;;;;5050560;28;20029;-85
2021/03/09 10:14:09;;;;;;;4.40;1.80;;;;;;;;;;5049008;28;20024;-70
2021/03/09 10:16:36;;;;;;;4.32;2.10;;;;;;;;;;5050850;28;20037;-77
2021/03/09 10:19:02;;;;;;;4.53;1.77;;;;;;;;;;5050624;28;20385;-77
2021/03/09 10:21:33;;;;;;;5.43;1.85;;;;;;;;;;5051374;28;20049;-70
2021/03/09 10:24:00;;;;;;;4.55;1.80;;;;;;;;;;5051450;28;20028;-68
2021/03/09 10:26:26;;;;;;;12.38;2.25;;;;;;;;;;5049639;28;20033;-69
2021/03/09 10:29:08;;;;;;;6.07;2.13;;;;;;;;;;5050296;28;20025;-67
2021/03/09 10:31:49;;;;;;;5.57;2.25;;;;;;;;;;5050671;28;20033;-71
2021/03/09 10:34:19;;;;;;;6.05;2.50;;;;;;;;;;5050411;28;20504;-78
2021/03/09 10:36:53;;;;;;;4.35;2.20;;;;;;;;;;5051958;28;20025;-69
2021/03/09 10:39:19;;;;;;;5.15;2.50;;;;;;;;;;5054036;28;20021;-70
2021/03/09 10:41:45;;;;;;;4.50;2.00;;;;;;;;;;5051058;28;20492;-69
2021/03/09 10:44:30;;;;;;;4.53;2.40;;;;;;;;;;5049414;28;20494;-69
2021/03/09 10:46:56;;;;;;;5.47;2.13;;;;;;;;;;5033830;28;20572;-70
2021/03/09 10:49:22;;;;;;;5.63;1.90;;;;;;;;;;5033843;28;20029;-69
2021/03/09 10:51:55;;;;;;;4.15;2.10;;;;;;;;;;5033826;28;20492;-68
2021/03/09 10:54:21;;;;;;;8.50;2.13;;;;;;;;;;5034051;28;20029;-70
2021/03/09 10:56:47;;;;;;;4.47;2.10;;;;;;;;;;5049099;28;20133;-71
2021/03/09 10:59:13;;;;;;;3.83;1.70;;;;;;;;;;5039624;28;20032;-69
2021/03/09 11:01:39;;;;;;;4.50;2.25;;;;;;;;;;5053736;28;20032;-69
2021/03/09 11:04:06;;;;;;;5.72;2.20;;;;;;;;;;5052712;28;20159;-77
2021/03/09 11:06:32;;;;;;;5.15;2.35;;;;;;;;;;5053975;28;20580;-71
2021/03/09 11:08:58;;;;;;;4.22;2.25;;;;;;;;;;5054857;28;20103;-82
2021/03/09 11:11:24;;;;;;;4.97;2.22;;;;;;;;;;5054007;28;20052;-71
2021/03/09 11:13:50;;;;;;;4.70;2.47;;;;;;;;;;5053431;28;20024;-71
2021/03/09 11:16:16;;;;;;;4.22;2.20;;;;;;;;;;5047424;28;20041;-76
2021/03/09 11:18:43;;;;;;;6.22;2.17;;;;;;;;;;5049157;28;20021;-70
2021/03/09 11:21:09;;;;;;;4.25;2.10;;;;;;;;;;5051872;28;20060;-72
2021/03/09 11:23:35;;;;;;;3.78;1.95;;;;;;;;;;5053372;28;20392;-70
2021/03/09 11:26:01;;;;;;;5.65;2.00;;;;;;;;;;5051973;28;20017;-69
2021/03/09 11:28:27;;;;;;;4.32;2.20;;;;;;;;;;5051929;28;20029;-71
2021/03/09 11:30:53;;;;;;;4.30;2.00;;;;;;;;;;5053329;28;20028;-76
2021/03/09 11:33:19;;;;;;;4.70;2.10;;;;;;;;;;5051520;28;20025;-68
2021/03/09 11:35:46;;;;;;;5.05;1.83;;;;;;;;;;5052883;28;20025;-74
2021/03/09 11:38:12;;;;;;;5.10;2.10;;;;;;;;;;5051555;28;20017;-69
2021/03/09 11:40:38;;;;;;;6.32;2.40;;;;;;;;;;5051705;28;20776;-73
2021/03/09 11:43:04;;;;;;;4.65;1.88;;;;;;;;;;5053050;28;20052;-73
2021/03/09 11:45:30;;;;;;;4.45;2.20;;;;;;;;;;5052975;28;20028;-75
2021/03/09 11:47:56;;;;;;;4.47;2.25;;;;;;;;;;5052261;28;20130;-73
2021/03/09 11:50:22;;;;;;;8.15;2.63;;;;;;;;;;5045762;28;20025;-74
2021/03/09 11:52:48;;;;;;;5.68;2.00;;;;;;;;;;5032772;28;20033;-73
2021/03/09 11:55:14;;;;;;;4.97;2.10;;;;;;;;;;5049386;28;20053;-67
2021/03/09 11:57:40;;;;;;;5.25;2.25;;;;;;;;;;5033376;28;20052;-68
2021/03/09 12:00:08;;;;;;;4.43;2.30;;;;;;;;;;5048076;28;20132;-80
2021/03/09 12:02:34;;;;;;;5.10;2.60;;;;;;;;;;5048504;28;20429;-69
2021/03/09 12:05:00;;;;;;;6.85;2.20;;;;;;;;;;5033152;28;20030;-68
2021/03/09 12:07:26;;;;;;;6.00;2.30;;;;;;;;;;5040589;28;20069;-68
2021/03/09 12:09:52;;;;;;;4.93;2.30;;;;;;;;;;5052884;28;20025;-70
2021/03/09 12:12:18;;;;;;;6.18;2.40;;;;;;;;;;5052810;28;20017;-73
2021/03/09 12:14:44;;;;;;;5.10;2.40;;;;;;;;;;5052739;28;20100;-72
2021/03/09 12:17:10;;;;;;;4.72;1.98;;;;;;;;;;5052831;28;20067;-75
2021/03/09 12:19:36;;;;;;;6.85;2.53;;;;;;;;;;5051824;28;20078;-72
2021/03/09 12:22:02;;;;;;;7.63;2.60;;;;;;;;;;5053018;28;20113;-71
2021/03/09 12:24:28;;;;;;;5.78;3.00;;;;;;;;;;5043585;28;20022;-68
2021/03/09 12:26:54;;;;;;;4.97;2.20;;;;;;;;;;5032384;28;20121;-69
2021/03/09 12:29:20;;;;;;;6.00;2.33;;;;;;;;;;5032023;28;20090;-68
2021/03/09 12:31:46;;;;;;;4.55;2.28;;;;;;;;;;5031967;28;20053;-68
2021/03/09 12:34:12;;;;;;;5.80;2.78;;;;;;;;;;5032217;28;20018;-76
2021/03/09 12:36:38;;;;;;;5.57;2.42;;;;;;;;;;5032336;28;20478;-70
2021/03/09 12:39:04;;;;;;;11.85;2.20;;;;;;;;;;5031803;28;20411;-71
2021/03/09 12:41:30;;;;;;;8.07;2.85;;;;;;;;;;5039967;28;20021;-71
2021/03/09 12:43:57;;;;;;;6.25;2.83;;;;;;;;;;5051820;28;20039;-72
2021/03/09 12:46:23;;;;;;;5.20;2.35;;;;;;;;;;5051590;28;20151;-67
2021/03/09 12:48:49;;;;;;;5.63;2.70;;;;;;;;;;5051742;28;20036;-68
2021/03/09 12:51:15;;;;;;;4.57;2.28;;;;;;;;;;5050548;28;20523;-67
2021/03/09 12:53:41;;;;;;;5.72;2.53;;;;;;;;;;5050213;28;20029;-67
2021/03/09 12:56:07;;;;;;;8.82;3.13;;;;;;;;;;5051615;28;20032;-68
2021/03/09 12:58:35;;;;;;;4.85;2.53;;;;;;;;;;5041547;28;20029;-67
2021/03/09 13:01:01;;;;;;;5.63;2.67;;;;;;;;;;5030441;28;20494;-74
2021/03/09 13:03:27;;;;;;;5.90;2.45;;;;;;;;;;5031522;28;20092;-68
2021/03/09 13:05:53;;;;;;;8.07;2.92;;;;;;;;;;5031328;28;20087;-70
2021/03/09 13:08:19;;;;;;;6.82;2.72;;;;;;;;;;5046668;28;20478;-70
2021/03/09 13:10:45;;;;;;;8.95;2.53;;;;;;;;;;5053563;28;20021;-74
2021/03/09 13:13:11;;;;;;;6.05;2.70;;;;;;;;;;5050779;28;20029;-66
2021/03/09 13:15:38;;;;;;;5.00;2.60;;;;;;;;;;5050715;28;20041;-70
2021/03/09 13:18:04;;;;;;;5.45;2.55;;;;;;;;;;5051413;28;20029;-75
2021/03/09 13:20:30;;;;;;;6.00;2.75;;;;;;;;;;5050260;28;20029;-72
2021/03/09 13:22:56;;;;;;;6.22;2.95;;;;;;;;;;5049687;28;20021;-73
2021/03/09 13:25:22;;;;;;;6.82;3.20;;;;;;;;;;5049929;28;20029;-72
2021/03/09 13:27:48;;;;;;;7.32;4.30;;;;;;;;;;5050552;28;20037;-71
2021/03/09 13:30:18;;;;;;;8.52;4.03;;;;;;;;;;5050618;28;20104;-70
2021/03/09 13:32:44;;;;;;;8.25;4.43;;;;;;;;;;5048738;28;20021;-73
2021/03/09 13:35:11;;;;;;;7.10;3.55;;;;;;;;;;5050217;28;20021;-68
2021/03/09 13:37:37;;;;;;;7.88;3.10;;;;;;;;;;5050324;28;20366;-67
2021/03/09 13:40:05;;;;;;;6.03;3.30;;;;;;;;;;5050415;28;20021;-69
2021/03/09 13:42:31;;;;;;;6.32;3.65;;;;;;;;;;5049134;28;20017;-75
2021/03/09 13:44:57;;;;;;;8.70;4.28;;;;;;;;;;5050274;28;20021;-68
2021/03/09 13:47:23;;;;;;;6.20;3.33;;;;;;;;;;5050206;28;20083;-67
2021/03/09 13:49:49;;;;;;;6.45;3.33;;;;;;;;;;5039401;28;20022;-76
2021/03/09 13:52:15;;;;;;;6.72;3.85;;;;;;;;;;5030867;28;20017;-73
2021/03/09 13:54:42;;;;;;;7.65;4.05;;;;;;;;;;5030504;28;20029;-67
2021/03/09 13:57:08;;;;;;;7.47;3.70;;;;;;;;;;5030308;28;20076;-72
2021/03/09 13:59:34;;;;;;;7.25;3.63;;;;;;;;;;5030354;28;20025;-75
2021/03/09 14:02:00;;;;;;;8.68;3.90;;;;;;;;;;5030682;28;20033;-72
2021/03/09 14:04:26;;;;;;;6.40;3.80;;;;;;;;;;5030363;28;20022;-71
2021/03/09 14:06:53;;;;;;;6.53;3.58;;;;;;;;;;5041314;28;20021;-72
2021/03/09 14:09:19;;;;;;;9.68;5.30;;;;;;;;;;5050178;28;20544;-68
2021/03/09 14:11:46;;;;;;;8.75;4.60;;;;;;;;;;5051947;28;20028;-81
2021/03/09 14:14:13;;;;;;;7.43;4.20;;;;;;;;;;5054539;28;20426;-68
2021/03/09 14:16:39;;;;;;;6.40;3.28;;;;;;;;;;5054577;28;20067;-74
2021/03/09 14:19:06;;;;;;;6.15;3.40;;;;;;;;;;5054517;28;20025;-69
2021/03/09 14:21:32;;;;;;;12.95;3.63;;;;;;;;;;5054151;28;20028;-70
2021/03/09 14:23:58;;;;;;;11.40;3.90;;;;;;;;;;5052951;28;20045;-79
2021/03/09 14:26:24;;;;;;;6.72;3.75;;;;;;;;;;5053507;28;20075;-72
2021/03/09 14:28:50;;;;;;;7.97;3.95;;;;;;;;;;5053994;28;20105;-71
2021/03/09 14:31:17;;;;;;;12.63;4.03;;;;;;;;;;5052989;28;20021;-71
2021/03/09 14:33:43;;;;;;;8.45;3.83;;;;;;;;;;5052898;28;20024;-74
2021/03/09 14:36:09;;;;;;;9.80;3.80;;;;;;;;;;5054115;28;20366;-73
2021/03/09 14:38:37;;;;;;;8.02;3.95;;;;;;;;;;5052824;28;20025;-76
2021/03/09 14:41:03;;;;;;;9.63;4.30;;;;;;;;;;5039862;28;20017;-72
2021/03/09 14:43:29;;;;;;;8.85;4.15;;;;;;;;;;5034220;28;20028;-71
2021/03/09 14:45:55;;;;;;;7.82;3.92;;;;;;;;;;5049715;28;20374;-74
2021/03/09 14:48:21;;;;;;;7.75;3.80;;;;;;;;;;5049537;28;20501;-71